createdAt,value
2019-04-22T00:00:55.728Z,8.51
2019-04-22T00:06:20.997Z,8.26
2019-04-22T00:16:47.502Z,7.51
2019-04-22T00:21:47.698Z,7.99
2019-04-22T00:26:58.945Z,7.47
2019-04-22T00:32:02.034Z,7.77
2019-04-22T00:37:11.610Z,8.22
2019-04-22T00:42:15.112Z,7.58
2019-04-22T00:52:28.685Z,8.04
2019-04-22T00:57:28.061Z,7.46
2019-04-22T01:02:48.469Z,7.41
2019-04-22T01:07:45.011Z,7.61
2019-04-22T01:12:57.323Z,7.22
2019-04-22T01:17:57.431Z,7.47
2019-04-22T01:23:12.730Z,7.70
2019-04-22T01:28:10.913Z,8.93
2019-04-22T01:33:09.477Z,8.42
2019-04-22T01:38:31.466Z,7.78
2019-04-22T01:48:39.498Z,8.35
2019-04-22T01:53:57.942Z,8.25
2019-04-22T01:58:54.728Z,8.39
2019-04-22T02:04:00.850Z,8.92
2019-04-22T02:19:29.102Z,9.12
2019-04-22T02:29:48.763Z,8.65
2019-04-22T02:35:04.040Z,8.40
2019-04-22T02:44:58.822Z,9.00
2019-04-22T02:50:08.861Z,7.87
2019-04-22T03:00:38.937Z,8.64
2019-04-22T03:05:46.517Z,8.84
2019-04-22T03:10:54.709Z,8.77
2019-04-22T03:15:57.301Z,8.58
2019-04-22T03:31:34.020Z,8.73
2019-04-22T03:46:34.418Z,8.21
2019-04-22T03:52:00.260Z,8.85
2019-04-22T04:01:55.376Z,7.71
2019-04-22T04:07:26.990Z,7.41
2019-04-22T04:12:21.557Z,7.51
2019-04-22T04:17:20.623Z,7.55
2019-04-22T04:27:53.812Z,7.49
2019-04-22T04:32:52.422Z,7.71
2019-04-22T04:37:44.607Z,7.53
2019-04-22T04:48:00.923Z,7.62
2019-04-22T05:03:32.745Z,6.95
2019-04-22T05:08:54.423Z,6.93
2019-04-22T05:18:52.993Z,6.83
2019-04-22T05:23:52.442Z,7.00
2019-04-22T05:28:51.378Z,6.34
2019-04-22T05:39:12.470Z,6.80
2019-04-22T05:44:08.439Z,6.17
2019-04-22T05:49:23.851Z,7.02
2019-04-22T05:54:34.272Z,6.28
2019-04-22T05:59:48.733Z,6.34
2019-04-22T06:10:02.337Z,6.56
2019-04-22T06:15:00.063Z,6.94
2019-04-22T06:20:13.712Z,7.14
2019-04-22T06:25:22.706Z,7.76
2019-04-22T06:30:17.311Z,6.41
2019-04-22T06:35:42.611Z,6.64
2019-04-22T06:40:41.661Z,6.63
2019-04-22T06:45:39.705Z,6.60
2019-04-22T07:01:09.820Z,6.40
2019-04-22T07:06:07.970Z,6.57
2019-04-22T07:16:35.080Z,6.23
2019-04-22T07:26:29.775Z,6.31
2019-04-22T07:31:49.794Z,6.77
2019-04-22T07:36:53.542Z,6.18
2019-04-22T07:42:05.554Z,6.37
2019-04-22T07:52:15.958Z,5.47
2019-04-22T07:57:28.705Z,5.42
2019-04-22T08:02:32.825Z,6.80
2019-04-22T08:07:29.989Z,5.90
2019-04-22T08:12:38.627Z,5.84
2019-04-22T08:17:57.816Z,5.09
2019-04-22T08:28:10.462Z,4.96
2019-04-22T08:33:21.622Z,5.10
2019-04-22T08:38:30.884Z,5.16
2019-04-22T08:43:36.417Z,5.29
2019-04-22T08:48:42.873Z,4.72
2019-04-22T08:58:50.696Z,4.82
2019-04-22T09:04:02.400Z,4.74
2019-04-22T09:14:16.601Z,5.36
2019-04-22T09:24:29.914Z,5.56
2019-04-22T09:29:39.813Z,4.59
2019-04-22T09:34:39.845Z,4.50
2019-04-22T09:39:55.783Z,5.38
2019-04-22T09:44:47.852Z,4.88
2019-04-22T09:50:03.680Z,5.72
2019-04-22T09:55:13.009Z,5.23
2019-04-22T10:00:12.194Z,6.37
2019-04-22T10:05:28.924Z,6.05
2019-04-22T10:15:39.407Z,5.22
2019-04-22T10:20:43.859Z,6.36
2019-04-22T10:26:02.561Z,5.09
2019-04-22T10:31:00.431Z,5.80
2019-04-22T10:35:43.678Z,5.12
2019-04-22T10:40:52.546Z,5.95
2019-04-22T10:45:57.994Z,5.19
2019-04-22T10:51:06.565Z,4.91
2019-04-22T10:56:14.748Z,4.54
2019-04-22T11:01:21.259Z,5.09
2019-04-22T11:06:29.476Z,4.36
2019-04-22T11:11:45.546Z,4.93
2019-04-22T11:16:41.677Z,7.43
2019-04-22T11:21:59.934Z,4.92
2019-04-22T11:26:57.035Z,4.55
2019-04-22T11:32:04.259Z,4.55
2019-04-22T11:37:10.238Z,4.96
2019-04-22T11:42:18.226Z,4.55
2019-04-22T11:47:25.646Z,4.61
2019-04-22T11:52:33.104Z,4.57
2019-04-22T11:57:41.205Z,4.71
2019-04-22T12:02:47.401Z,4.49
2019-04-22T12:07:55.234Z,4.65
2019-04-22T12:13:03.660Z,4.35
2019-04-22T12:18:11.176Z,4.66
2019-04-22T12:23:18.985Z,4.56
2019-04-22T12:28:25.104Z,4.62
2019-04-22T12:33:34.980Z,5.02
2019-04-22T12:38:41.689Z,4.65
2019-04-22T12:43:49.153Z,4.12
2019-04-22T12:48:56.286Z,4.02
2019-04-22T12:54:03.384Z,4.43
2019-04-22T12:59:09.749Z,3.94
2019-04-22T13:04:19.488Z,4.39
2019-04-22T13:09:23.428Z,3.50
2019-04-22T13:14:31.112Z,3.90
2019-04-22T13:19:40.298Z,3.88
2019-04-22T13:24:47.921Z,4.26
2019-04-22T13:29:55.167Z,3.94
2019-04-22T13:35:02.156Z,3.77
2019-04-22T13:40:07.866Z,4.25
2019-04-22T13:45:15.912Z,3.86
2019-04-22T13:51:01.674Z,3.74
2019-04-22T13:55:59.184Z,4.13
2019-04-22T14:00:42.573Z,3.75
2019-04-22T14:05:48.825Z,3.63
2019-04-22T14:10:57.871Z,3.99
2019-04-22T14:16:02.308Z,3.97
2019-04-22T14:21:09.754Z,3.40
2019-04-22T14:26:17.563Z,3.74
2019-04-22T14:31:26.702Z,4.17
2019-04-22T14:36:33.319Z,3.57
2019-04-22T14:41:55.967Z,4.17
2019-04-22T14:47:15.799Z,3.51
2019-04-22T14:57:05.186Z,4.19
2019-04-22T15:02:11.925Z,4.80
2019-04-22T15:07:20.993Z,4.51
2019-04-22T15:12:31.272Z,3.21
2019-04-22T15:17:33.949Z,3.73
2019-04-22T15:22:41.393Z,3.60
2019-04-22T15:27:48.992Z,3.65
2019-04-22T15:32:57.165Z,3.37
2019-04-22T15:38:04.809Z,3.45
2019-04-22T15:43:10.953Z,3.80
2019-04-22T15:48:17.211Z,4.52
2019-04-22T15:53:25.397Z,3.09
2019-04-22T15:58:33.429Z,3.28
2019-04-22T16:03:39.000Z,3.09
2019-04-22T16:08:47.764Z,3.64
2019-04-22T16:13:54.545Z,3.99
2019-04-22T16:19:00.623Z,3.23
2019-04-22T16:24:06.451Z,3.44
2019-04-22T16:29:13.891Z,3.27
2019-04-22T16:34:21.685Z,3.34
2019-04-22T16:39:28.984Z,3.99
2019-04-22T16:44:36.566Z,3.66
2019-04-22T16:49:45.554Z,3.51
2019-04-22T16:54:50.899Z,4.33
2019-04-22T16:59:58.618Z,3.87
2019-04-22T17:05:07.249Z,3.49
2019-04-22T17:10:13.713Z,3.75
2019-04-22T17:15:22.198Z,3.15
2019-04-22T17:20:29.226Z,3.86
2019-04-22T17:25:36.328Z,3.03
2019-04-22T17:30:43.852Z,2.62
2019-04-22T17:35:51.201Z,3.65
2019-04-22T17:41:11.509Z,3.76
2019-04-22T17:46:24.780Z,3.29
2019-04-22T17:51:30.148Z,3.12
2019-04-22T17:56:43.728Z,2.66
2019-04-22T18:01:43.592Z,2.91
2019-04-22T18:12:05.678Z,3.93
2019-04-22T18:17:11.200Z,2.64
2019-04-22T18:22:07.584Z,2.98
2019-04-22T18:27:36.311Z,3.00
2019-04-22T18:32:20.387Z,3.49
2019-04-22T18:37:36.062Z,3.17
2019-04-22T18:42:49.759Z,3.13
2019-04-22T18:47:44.272Z,3.35
2019-04-22T18:53:04.946Z,2.67
2019-04-22T18:58:01.046Z,3.68
2019-04-22T19:02:59.031Z,3.92
2019-04-22T19:08:18.242Z,3.33
2019-04-22T19:13:51.263Z,3.39
2019-04-22T19:18:39.195Z,3.37
2019-04-22T19:23:41.089Z,3.63
2019-04-22T19:28:46.606Z,2.67
2019-04-22T19:33:55.106Z,3.97
2019-04-22T19:39:04.254Z,3.55
2019-04-22T19:44:17.675Z,3.12
2019-04-22T19:49:33.014Z,3.88
2019-04-22T19:54:24.599Z,3.63
2019-04-22T19:59:36.364Z,3.27
2019-04-22T20:04:48.828Z,4.06
2019-04-22T20:09:55.543Z,2.35
2019-04-22T20:14:57.608Z,3.40
2019-04-22T20:20:08.185Z,3.61
2019-04-22T20:25:06.556Z,3.41
2019-04-22T20:30:23.941Z,3.54
2019-04-22T20:35:37.436Z,4.37
2019-04-22T20:40:39.863Z,2.94
2019-04-22T20:50:53.021Z,2.81
2019-04-22T20:56:01.149Z,3.23
2019-04-22T21:00:55.805Z,3.05
2019-04-22T21:06:06.896Z,3.27
2019-04-22T21:11:20.792Z,3.71
2019-04-22T21:21:38.684Z,3.46
2019-04-22T21:26:40.066Z,2.67
2019-04-22T21:31:53.068Z,3.42
2019-04-22T21:37:05.712Z,4.27
2019-04-22T21:41:58.835Z,4.28
2019-04-22T21:47:10.856Z,3.73
2019-04-22T21:52:24.370Z,2.74
2019-04-22T21:57:28.012Z,2.96
2019-04-22T22:02:41.297Z,3.42
2019-04-22T22:07:27.627Z,3.66
2019-04-22T22:17:58.697Z,3.01
2019-04-22T22:22:59.981Z,3.80
2019-04-22T22:28:21.916Z,2.93
2019-04-22T22:33:10.960Z,3.01
2019-04-22T22:38:24.393Z,2.97
2019-04-22T22:43:22.670Z,3.28
2019-04-22T22:48:50.147Z,5.12
2019-04-22T22:53:52.626Z,3.08
2019-04-22T22:58:57.328Z,3.44
2019-04-22T23:04:02.389Z,2.32
2019-04-22T23:09:14.483Z,3.55
2019-04-22T23:14:20.394Z,2.78
2019-04-22T23:19:07.416Z,3.78
2019-04-22T23:24:29.851Z,5.30
2019-04-22T23:29:32.302Z,3.18
2019-04-22T23:34:42.889Z,3.36
2019-04-22T23:39:56.130Z,3.38
2019-04-22T23:45:03.835Z,3.01
2019-04-22T23:50:09.423Z,2.65
2019-04-22T23:55:14.352Z,2.99
